Time;durP1;ratioP1;P1;durP2;ratioP2;P2;SDS_P1;SDS_P2;PMS_P1;PMS_P2;Temp;Humidity;BMP_temperature;BMP_pressure;BME280_temperature;BME280_humidity;BME280_pressure;Samples;Min_cycle;Max_cycle;Signal;HPM_P1;HPM_P2
2022/02/07 00:00:20;;;;;;;10.18;7.83;;;;;;;5.88;57.47;93036.59;1699263;81;21577;-48
2022/02/07 00:05:23;;;;;;;33.70;17.98;;;;;;;5.81;58.01;93002.83;1680482;82;21029;-47
2022/02/07 00:07:47;;;;;;;41.58;20.32;;;;;;;5.88;58.24;93018.86;1681223;82;21462;-47
2022/02/07 00:10:13;;;;;;;23.07;12.33;;;;;;;5.88;58.40;93010.67;1690891;82;20979;-48
2022/02/07 00:12:45;;;;;;;15.15;9.83;;;;;;;5.89;58.63;93003.41;1690527;82;21577;-47
2022/02/07 00:15:10;;;;;;;14.38;8.50;;;;;;;5.88;59.37;92994.30;1676888;82;20990;-47
2022/02/07 00:17:39;;;;;;;7.83;6.55;;;;;;;5.85;59.69;92989.77;1683514;82;21078;-47
2022/02/07 00:20:13;;;;;;;27.48;16.10;;;;;;;5.85;59.79;92985.67;1691568;82;21042;-48
2022/02/07 00:22:37;;;;;;;27.98;15.48;;;;;;;5.84;59.79;92975.98;1683392;82;21003;-47
2022/02/07 00:25:07;;;;;;;10.65;7.50;;;;;;;5.83;59.96;92977.20;1700941;82;21110;-48
2022/02/07 00:27:35;;;;;;;16.07;10.63;;;;;;;5.85;60.43;92966.58;1681895;82;21140;-49
2022/02/07 00:30:07;;;;;;;28.23;16.95;;;;;;;5.88;60.68;92979.30;1684900;82;21070;-47
2022/02/07 00:32:35;;;;;;;12.28;8.68;;;;;;;5.89;60.77;92962.48;1708459;82;21103;-47
2022/02/07 00:35:04;;;;;;;16.23;11.43;;;;;;;5.91;60.94;92959.27;1689947;82;21026;-49
2022/02/07 00:37:33;;;;;;;15.13;10.53;;;;;;;5.91;61.06;92961.41;1690410;82;21175;-47
2022/02/07 00:40:17;;;;;;;26.27;14.75;;;;;;;5.91;61.39;92956.55;1704487;81;21631;-48
2022/02/07 00:42:39;;;;;;;14.07;9.87;;;;;;;5.91;61.46;92942.31;1703870;81;21560;-49
2022/02/07 00:45:05;;;;;;;10.05;8.05;;;;;;;5.90;61.57;92950.34;1689683;82;21092;-48
2022/02/07 00:47:29;;;;;;;13.03;9.88;;;;;;;5.88;61.58;92941.09;1695952;82;21094;-47
2022/02/07 00:49:56;;;;;;;9.68;7.28;;;;;;;5.87;61.63;92928.08;1669708;83;21135;-47
2022/02/07 00:52:23;;;;;;;11.57;8.28;;;;;;;5.88;61.58;92924.13;1654823;85;21087;-47
2022/02/07 00:54:52;;;;;;;8.48;6.62;;;;;;;5.92;61.65;92917.12;1669449;84;21039;-47
2022/02/07 00:57:19;;;;;;;6.30;5.70;;;;;;;5.91;61.93;92900.02;1645642;85;21084;-47
2022/02/07 00:59:45;;;;;;;7.17;6.42;;;;;;;5.92;61.94;92902.89;1676002;84;21066;-48
2022/02/07 01:02:12;;;;;;;4.95;4.42;;;;;;;5.96;62.20;92898.64;1667165;84;21165;-47
2022/02/07 01:04:39;;;;;;;5.55;4.92;;;;;;;5.99;62.09;92888.16;1665349;84;21212;-48
2022/02/07 01:07:09;;;;;;;5.70;5.20;;;;;;;6.00;62.14;92895.13;1675813;83;21140;-48
2022/02/07 01:09:48;;;;;;;5.83;5.33;;;;;;;6.02;62.32;92903.59;1701073;83;21137;-46
2022/02/07 01:14:57;;;;;;;6.87;6.17;;;;;;;5.99;62.74;92875.25;1693546;81;21093;-47
2022/02/07 01:20:28;;;;;;;4.47;4.08;;;;;;;5.99;62.47;92870.42;1717788;83;21006;-47
2022/02/07 01:23:04;;;;;;;4.90;4.50;;;;;;;5.99;62.50;92858.14;1675973;82;21133;-46
2022/02/07 01:57:32;;;;;;;5.65;5.15;;;;;;;6.16;61.73;92817.69;1695354;82;21081;-49
2022/02/07 02:00:01;;;;;;;5.75;4.80;;;;;;;6.15;61.89;92816.80;1697062;83;20972;-48
2022/02/07 02:02:32;;;;;;;3.98;3.67;;;;;;;6.16;62.00;92814.95;1671085;83;21069;-48
2022/02/07 02:04:59;;;;;;;4.15;3.92;;;;;;;6.17;61.83;92801.45;1706551;81;21073;-46
2022/02/07 02:07:28;;;;;;;4.10;3.80;;;;;;;6.18;61.91;92800.85;1704901;83;21163;-49
2022/02/07 02:09:54;;;;;;;5.15;4.75;;;;;;;6.14;61.85;92796.19;1678572;82;20933;-48
2022/02/07 02:12:25;;;;;;;5.75;5.22;;;;;;;6.12;62.03;92784.98;1707383;83;20971;-48
2022/02/07 02:15:03;;;;;;;5.30;4.83;;;;;;;6.11;62.14;92779.35;1698345;82;21536;-48
2022/02/07 02:47:02;;;;;;;4.95;4.45;;;;;;;6.18;61.17;92733.98;1662161;84;21303;-47
2022/02/07 02:49:33;;;;;;;4.92;4.58;;;;;;;6.17;61.33;92735.20;1686597;83;21077;-48
2022/02/07 02:51:57;;;;;;;5.15;4.67;;;;;;;6.13;61.37;92732.64;1697491;83;21057;-48
2022/02/07 02:54:24;;;;;;;4.80;4.35;;;;;;;6.15;61.56;92730.82;1700515;82;21013;-47
2022/02/07 02:56:51;;;;;;;4.25;3.95;;;;;;;6.14;61.58;92713.67;1691806;82;20974;-47
2022/02/07 02:59:19;;;;;;;4.47;4.08;;;;;;;6.12;61.49;92713.39;1686927;83;21078;-47
2022/02/07 03:01:46;;;;;;;5.05;4.55;;;;;;;6.12;61.41;92719.48;1703097;81;21108;-48
2022/02/07 03:04:14;;;;;;;4.60;4.20;;;;;;;6.14;61.35;92703.38;1712500;82;21506;-47
2022/02/07 03:06:42;;;;;;;4.10;3.70;;;;;;;6.16;61.50;92694.11;1648761;83;21028;-48
2022/02/07 03:09:13;;;;;;;3.70;3.40;;;;;;;6.17;61.55;92696.36;1709013;83;21174;-48
2022/02/07 03:11:38;;;;;;;5.53;4.58;;;;;;;6.16;61.89;92710.49;1700005;82;21161;-47
2022/02/07 03:14:06;;;;;;;3.80;3.60;;;;;;;6.11;62.03;92696.11;1706952;82;21121;-47
2022/02/07 03:16:41;;;;;;;3.50;3.25;;;;;;;6.06;62.33;92700.86;1668828;82;21069;-47
2022/02/07 03:19:13;;;;;;;3.20;3.00;;;;;;;6.00;62.56;92706.20;1667390;83;21027;-47
2022/02/07 03:21:41;;;;;;;3.55;3.35;;;;;;;5.94;62.98;92704.61;1698403;82;21062;-48
2022/02/07 03:24:09;;;;;;;3.77;3.37;;;;;;;5.91;63.11;92690.52;1663587;82;21106;-47
2022/02/07 03:26:43;;;;;;;4.92;4.42;;;;;;;5.94;63.02;92705.35;1703019;82;21811;-48
2022/02/07 03:29:13;;;;;;;4.55;4.15;;;;;;;5.96;63.17;92708.36;1702558;81;21069;-47
2022/02/07 03:31:43;;;;;;;5.65;5.00;;;;;;;5.99;62.68;92712.88;1685623;82;21029;-47
2022/02/07 03:34:10;;;;;;;6.78;4.90;;;;;;;6.03;62.71;92701.80;1682641;83;20957;-48
2022/02/07 03:36:39;;;;;;;12.33;11.03;;;;;;;6.08;62.48;92702.50;1704890;81;23303;-48
2022/02/07 03:39:06;;;;;;;13.53;10.95;;;;;;;6.09;62.24;92707.51;1700953;81;21211;-48
2022/02/07 03:41:40;;;;;;;16.90;9.75;;;;;;;6.12;62.13;92709.92;1706631;81;21070;-47
2022/02/07 03:44:05;;;;;;;13.65;9.83;;;;;;;6.13;62.00;92711.43;1684920;83;21148;-48
2022/02/07 03:46:32;;;;;;;12.55;8.05;;;;;;;6.09;61.95;92716.30;1686118;83;21572;-47
2022/02/07 03:49:01;;;;;;;7.17;5.10;;;;;;;6.07;61.90;92718.14;1703680;83;21349;-46
2022/02/07 03:51:29;;;;;;;5.10;4.60;;;;;;;6.10;61.53;92720.53;1707933;82;20979;-47
2022/02/07 03:53:55;;;;;;;6.45;5.85;;;;;;;6.08;61.22;92721.61;1691982;82;20987;-47
2022/02/07 03:56:22;;;;;;;6.37;5.80;;;;;;;6.06;61.30;92710.41;1689247;83;20966;-46
2022/02/07 03:58:49;;;;;;;5.10;4.70;;;;;;;6.09;61.11;92715.70;1716382;83;21070;-46
2022/02/07 04:01:21;;;;;;;3.75;3.55;;;;;;;6.15;60.93;92711.09;1683286;84;21111;-48
2022/02/07 04:03:48;;;;;;;3.60;3.40;;;;;;;6.16;60.71;92715.95;1703350;82;21098;-48
2022/02/07 04:06:19;;;;;;;3.30;3.10;;;;;;;6.14;60.81;92714.30;1702785;82;21149;-48
2022/02/07 04:08:49;;;;;;;3.50;3.30;;;;;;;6.11;60.84;92714.62;1677307;82;21050;-47
2022/02/07 04:11:30;;;;;;;3.37;3.17;;;;;;;6.14;60.83;92703.38;1690149;82;21006;-47
2022/02/07 04:13:56;;;;;;;6.97;6.22;;;;;;;6.14;60.77;92691.10;1706352;82;21241;-48
2022/02/07 04:16:23;;;;;;;8.35;6.53;;;;;;;6.17;60.80;92696.98;1683740;83;21018;-48
2022/02/07 04:19:14;;;;;;;5.45;5.00;;;;;;;6.17;60.82;92698.34;1692072;82;21041;-49
2022/02/07 04:21:35;;;;;;;4.58;4.28;;;;;;;6.12;60.94;92698.38;1673301;82;21082;-48
2022/02/07 04:24:01;;;;;;;3.50;3.20;;;;;;;6.08;60.94;92690.22;1706508;82;21012;-48
2022/02/07 04:26:33;;;;;;;12.85;6.03;;;;;;;6.05;61.03;92696.63;1666048;83;21991;-47
2022/02/07 04:29:01;;;;;;;16.17;7.53;;;;;;;6.01;61.14;92711.06;1706415;82;20986;-47
2022/02/07 04:31:30;;;;;;;14.87;6.92;;;;;;;5.96;61.19;92707.00;1684855;82;21021;-49
2022/02/07 04:33:57;;;;;;;10.35;5.70;;;;;;;5.95;61.23;92706.86;1697927;83;21584;-48
2022/02/07 04:36:26;;;;;;;6.55;5.25;;;;;;;5.96;61.08;92704.27;1690199;82;21062;-53
2022/02/07 04:38:54;;;;;;;6.22;4.70;;;;;;;5.99;60.97;92709.41;1702373;81;21104;-47
2022/02/07 04:41:23;;;;;;;5.50;4.97;;;;;;;5.98;60.80;92704.55;1693761;83;20983;-48
2022/02/07 04:43:57;;;;;;;6.22;5.72;;;;;;;5.96;60.52;92702.17;1690464;82;21684;-48
2022/02/07 04:46:54;;;;;;;17.10;14.47;;;;;;;5.94;60.61;92693.08;1690032;82;21023;-47
2022/02/07 04:52:04;;;;;;;14.75;9.20;;;;;;;6.04;60.51;92693.16;1695614;83;21088;-48
2022/02/07 04:57:18;;;;;;;6.60;6.00;;;;;;;6.04;59.85;92692.39;1692238;82;21561;-48
2022/02/07 05:00:09;;;;;;;12.25;9.83;;;;;;;6.01;59.84;92687.87;1701905;81;20971;-48
2022/02/07 05:02:53;;;;;;;12.80;11.57;;;;;;;6.04;59.74;92684.20;1698208;81;21089;-48
2022/02/07 05:13:37;;;;;;;9.03;8.13;;;;;;;6.04;59.60;92671.92;1694176;82;21823;-48
2022/02/07 05:16:31;;;;;;;9.90;6.85;;;;;;;6.14;59.56;92695.20;1681307;82;20959;-49
2022/02/07 05:19:03;;;;;;;7.85;6.50;;;;;;;6.16;59.53;92681.83;1660165;83;21363;-48
2022/02/07 05:21:38;;;;;;;13.05;8.33;;;;;;;6.14;59.63;92672.00;1699163;82;21197;-47
2022/02/07 05:24:07;;;;;;;8.58;6.85;;;;;;;6.15;59.74;92685.16;1694630;82;21632;-48
2022/02/07 05:26:42;;;;;;;12.55;10.03;;;;;;;6.18;59.73;92674.66;1684332;83;21501;-49
2022/02/07 05:29:16;;;;;;;7.55;6.28;;;;;;;6.18;59.78;92676.66;1684340;83;21592;-48
2022/02/07 05:31:48;;;;;;;6.80;6.00;;;;;;;6.17;59.89;92691.53;1685314;83;21190;-48
2022/02/07 05:34:16;;;;;;;8.80;7.28;;;;;;;6.16;60.14;92698.20;1687066;83;20982;-48
2022/02/07 05:37:00;;;;;;;14.05;10.80;;;;;;;6.15;60.33;92711.71;1652204;85;21126;-46
2022/02/07 05:39:44;;;;;;;13.88;11.20;;;;;;;6.16;60.43;92705.03;1652530;85;21248;-48
2022/02/07 05:42:12;;;;;;;13.28;10.53;;;;;;;6.18;60.53;92710.77;1699308;82;21160;-51
2022/02/07 05:44:48;;;;;;;20.80;12.88;;;;;;;6.23;60.48;92723.17;1682443;82;21186;-53
2022/02/07 05:47:35;;;;;;;24.72;14.68;;;;;;;6.27;60.46;92729.19;1646858;86;21483;-46
2022/02/07 05:50:05;;;;;;;34.95;20.45;;;;;;;6.23;60.56;92733.32;1640297;86;21014;-48
2022/02/07 05:52:43;;;;;;;64.97;33.90;;;;;;;6.24;60.82;92734.83;1672127;83;21061;-48
2022/02/07 05:55:27;;;;;;;31.35;18.92;;;;;;;6.28;60.91;92740.85;1590287;88;21086;-48
2022/02/07 05:57:58;;;;;;;93.90;43.08;;;;;;;6.28;60.80;92736.16;1664244;83;21272;-46
2022/02/07 06:00:32;;;;;;;106.05;56.83;;;;;;;6.25;60.99;92740.42;1673922;83;21183;-47
2022/02/07 06:03:01;;;;;;;38.10;25.80;;;;;;;6.26;61.12;92740.56;1682812;83;21608;-48
2022/02/07 06:05:31;;;;;;;107.60;71.95;;;;;;;6.22;61.26;92737.27;1654234;86;22253;-48
2022/02/07 06:08:00;;;;;;;32.53;22.62;;;;;;;6.18;61.58;92738.06;1654674;85;21059;-49
2022/02/07 06:10:29;;;;;;;29.05;24.82;;;;;;;6.18;61.73;92740.80;1651201;85;21098;-50
2022/02/07 06:12:57;;;;;;;27.10;22.85;;;;;;;6.21;61.85;92745.31;1625917;86;21111;-49
2022/02/07 06:15:24;;;;;;;27.85;24.70;;;;;;;6.26;61.80;92750.13;1713047;82;21138;-49
2022/02/07 06:17:55;;;;;;;33.23;25.52;;;;;;;6.33;61.78;92751.87;1638617;84;21577;-47
2022/02/07 06:20:21;;;;;;;27.77;19.32;;;;;;;6.31;61.83;92754.95;1685345;82;21044;-48
2022/02/07 06:22:49;;;;;;;36.60;27.15;;;;;;;6.33;62.00;92747.05;1685503;82;21176;-48
2022/02/07 06:25:17;;;;;;;33.75;25.68;;;;;;;6.42;62.04;92749.69;1648744;84;21182;-49
2022/02/07 06:27:45;;;;;;;31.35;19.87;;;;;;;6.45;62.04;92746.02;1677509;83;21938;-49
2022/02/07 06:30:14;;;;;;;25.62;15.60;;;;;;;6.47;62.20;92744.93;1691864;83;21073;-49
2022/02/07 06:32:42;;;;;;;25.45;15.23;;;;;;;6.48;62.55;92745.09;1697633;82;21167;-49
2022/02/07 06:35:09;;;;;;;47.73;31.85;;;;;;;6.54;62.66;92766.42;1724416;80;21173;-50
2022/02/07 06:37:39;;;;;;;37.80;22.35;;;;;;;6.58;62.63;92762.89;1687577;82;21129;-50
2022/02/07 06:40:08;;;;;;;24.18;15.70;;;;;;;6.58;62.65;92754.70;1689023;81;21557;-50
2022/02/07 06:42:36;;;;;;;21.00;13.62;;;;;;;6.54;62.73;92763.70;1692578;80;21693;-50
2022/02/07 06:45:04;;;;;;;18.70;12.07;;;;;;;6.52;62.96;92768.87;1701616;81;21097;-50
2022/02/07 06:47:32;;;;;;;45.05;28.35;;;;;;;6.51;63.23;92769.48;1720703;81;21194;-49
2022/02/07 06:49:59;;;;;;;17.00;12.53;;;;;;;6.58;63.21;92760.94;1750480;80;21053;-50
2022/02/07 06:52:27;;;;;;;13.10;10.30;;;;;;;6.61;63.26;92764.68;1694200;82;21061;-54
2022/02/07 06:54:54;;;;;;;13.78;11.70;;;;;;;6.69;63.32;92757.02;1718020;80;21119;-53
2022/02/07 06:57:23;;;;;;;17.52;12.60;;;;;;;6.75;63.22;92750.29;1718384;81;21508;-53
2022/02/07 06:59:50;;;;;;;18.87;14.13;;;;;;;6.87;63.05;92751.99;1701509;81;21670;-51
2022/02/07 07:02:25;;;;;;;10.82;8.83;;;;;;;6.96;62.90;92742.31;1697947;81;21841;-51
2022/02/07 07:04:49;;;;;;;20.82;11.75;;;;;;;7.02;62.75;92749.98;1676191;83;20966;-50
2022/02/07 07:07:18;;;;;;;7.80;6.87;;;;;;;6.95;62.94;92753.11;1657003;83;21151;-52
2022/02/07 07:09:46;;;;;;;9.08;6.72;;;;;;;6.90;62.80;92752.41;1710967;81;21482;-49
2022/02/07 07:12:13;;;;;;;12.78;8.48;;;;;;;6.84;62.77;92755.64;1693962;82;21146;-51
2022/02/07 07:14:52;;;;;;;10.38;7.70;;;;;;;6.84;62.88;92751.55;1706295;81;21102;-51
2022/02/07 07:17:17;;;;;;;10.40;7.22;;;;;;;6.83;62.56;92751.41;1679827;82;21129;-51
2022/02/07 07:19:48;;;;;;;8.70;7.80;;;;;;;6.80;62.51;92738.69;1689659;81;21568;-50
2022/02/07 07:22:15;;;;;;;8.70;7.80;;;;;;;6.80;62.42;92741.42;1692730;81;21486;-49
2022/02/07 07:24:45;;;;;;;6.97;5.95;;;;;;;6.76;62.28;92740.86;1702742;80;21778;-50
2022/02/07 07:27:14;;;;;;;16.02;11.53;;;;;;;6.79;62.39;92731.72;1682234;81;22130;-50
2022/02/07 07:29:45;;;;;;;26.97;19.25;;;;;;;6.88;62.13;92727.55;1718272;81;21215;-51
2022/02/07 07:32:10;;;;;;;30.35;20.55;;;;;;;6.97;62.19;92734.26;1719703;81;21108;-49
2022/02/07 07:34:39;;;;;;;32.48;21.90;;;;;;;7.05;62.30;92729.94;1714687;82;21551;-49
2022/02/07 07:37:10;;;;;;;81.32;46.55;;;;;;;7.17;62.07;92728.26;1708075;82;21061;-47
2022/02/07 07:39:42;;;;;;;214.75;120.85;;;;;;;7.31;61.84;92735.06;1708458;81;21025;-47
2022/02/07 07:42:10;;;;;;;66.33;41.45;;;;;;;7.45;61.48;92724.70;1695981;82;21069;-50
2022/02/07 07:44:55;;;;;;;253.35;110.42;;;;;;;7.52;61.06;92724.93;1710378;81;21042;-50
2022/02/07 07:47:45;;;;;;;35.78;20.52;;;;;;;7.47;60.82;92729.09;1703426;82;21049;-49
2022/02/07 07:50:29;;;;;;;19.10;12.07;;;;;;;7.42;60.71;92733.88;1654760;82;21153;-50
2022/02/07 08:01:38;;;;;;;32.08;16.35;;;;;;;7.50;60.24;92725.39;1702865;81;21125;-59
2022/02/07 08:03:57;;;;;;;54.70;29.25;;;;;;;7.46;60.34;92716.64;1705373;81;21156;-56
2022/02/07 08:06:29;;;;;;;53.68;29.80;;;;;;;7.41;60.57;92699.55;1672873;83;21016;-49
2022/02/07 08:11:31;;;;;;;50.10;30.97;;;;;;;7.42;60.78;92689.34;1673039;82;21002;-48
2022/02/07 08:13:59;;;;;;;35.85;22.32;;;;;;;7.60;60.35;92677.55;1703281;83;21079;-49
2022/02/07 08:16:29;;;;;;;39.27;22.10;;;;;;;7.73;59.57;92684.78;1707400;81;21238;-49
2022/02/07 08:19:01;;;;;;;30.05;19.12;;;;;;;7.80;59.11;92690.47;1708908;81;22130;-48
2022/02/07 08:21:24;;;;;;;20.90;14.63;;;;;;;7.83;59.07;92701.82;1701742;81;22307;-49
2022/02/07 08:23:51;;;;;;;22.52;15.60;;;;;;;7.85;58.89;92689.17;1699679;82;21008;-48
2022/02/07 08:26:18;;;;;;;29.90;16.97;;;;;;;7.85;58.64;92702.86;1712925;81;21068;-49
2022/02/07 08:28:48;;;;;;;17.55;11.88;;;;;;;7.84;57.91;92713.67;1708081;81;21260;-51
2022/02/07 08:31:17;;;;;;;20.27;11.35;;;;;;;7.82;57.75;92716.14;1701018;81;21051;-49
2022/02/07 08:33:46;;;;;;;26.30;15.88;;;;;;;7.80;57.67;92722.70;1703005;81;21104;-48
2022/02/07 08:36:16;;;;;;;29.02;16.30;;;;;;;7.79;57.76;92712.99;1712464;81;21138;-48
2022/02/07 08:38:43;;;;;;;38.60;21.23;;;;;;;7.87;57.87;92722.29;1732365;81;21660;-49
2022/02/07 08:41:11;;;;;;;38.95;21.97;;;;;;;7.96;57.69;92717.30;1681658;82;21217;-47
2022/02/07 08:43:38;;;;;;;30.60;17.35;;;;;;;8.08;57.43;92723.80;1697643;81;21844;-49
2022/02/07 08:46:04;;;;;;;28.62;19.70;;;;;;;8.24;56.81;92713.68;1706928;82;21334;-51
2022/02/07 08:48:32;;;;;;;13.30;9.25;;;;;;;8.39;56.07;92711.61;1704512;81;21602;-48
2022/02/07 08:50:58;;;;;;;22.00;14.35;;;;;;;8.48;55.37;92719.70;1713490;81;21085;-51
2022/02/07 08:53:32;;;;;;;17.62;11.63;;;;;;;8.47;55.43;92716.80;1675979;82;21304;-50
2022/02/07 08:55:55;;;;;;;17.35;11.60;;;;;;;8.53;55.17;92712.14;1668220;84;21671;-50
2022/02/07 08:58:25;;;;;;;9.85;7.53;;;;;;;8.55;55.01;92715.15;1643720;84;21065;-53
2022/02/07 09:01:19;;;;;;;8.48;6.45;;;;;;;8.53;55.06;92712.14;1703324;81;21552;-48
2022/02/07 09:06:15;;;;;;;10.20;8.45;;;;;;;8.51;55.21;92721.47;1695649;81;21190;-52
2022/02/07 09:08:52;;;;;;;8.80;7.40;;;;;;;8.58;55.27;92723.77;1703469;81;21038;-55
2022/02/07 09:11:07;;;;;;;14.58;9.28;;;;;;;8.70;54.92;92719.15;1708330;81;21090;-52
2022/02/07 09:13:38;;;;;;;4.78;4.37;;;;;;;8.83;54.96;92720.27;1687630;81;21233;-48
2022/02/07 09:18:40;;;;;;;11.22;10.00;;;;;;;8.87;54.30;92719.45;1713379;81;21327;-48
2022/02/07 09:21:08;;;;;;;9.05;6.50;;;;;;;8.92;54.35;92707.14;1699509;81;21048;-50
2022/02/07 09:23:36;;;;;;;5.60;5.08;;;;;;;8.96;54.37;92704.19;1675713;82;21054;-50
2022/02/07 09:26:04;;;;;;;11.08;6.70;;;;;;;8.94;54.33;92699.81;1718212;81;21211;-49
2022/02/07 09:28:31;;;;;;;4.12;3.72;;;;;;;8.98;54.19;92693.48;1718222;81;21117;-47
2022/02/07 09:30:59;;;;;;;7.83;6.67;;;;;;;8.98;53.90;92688.00;1679330;83;21788;-51
2022/02/07 09:33:26;;;;;;;17.30;14.38;;;;;;;8.91;54.22;92694.67;1682513;83;20993;-52
2022/02/07 09:35:54;;;;;;;12.23;10.85;;;;;;;8.87;54.13;92690.67;1656390;83;21049;-52
2022/02/07 09:38:21;;;;;;;8.45;7.55;;;;;;;8.82;54.16;92688.61;1650780;84;21068;-54
2022/02/07 09:40:53;;;;;;;7.37;5.92;;;;;;;8.79;54.30;92688.21;1656141;82;21135;-51
2022/02/07 09:43:19;;;;;;;20.02;17.77;;;;;;;8.66;54.22;92683.72;1711454;81;21784;-49
2022/02/07 09:45:49;;;;;;;18.92;17.05;;;;;;;8.57;54.44;92689.38;1714639;81;21057;-50
2022/02/07 09:48:16;;;;;;;17.40;15.60;;;;;;;8.48;54.80;92684.68;1693783;82;21168;-51
2022/02/07 09:50:44;;;;;;;16.05;14.47;;;;;;;8.48;54.99;92673.12;1705581;81;21576;-50
2022/02/07 09:53:11;;;;;;;29.42;17.27;;;;;;;8.48;54.80;92669.61;1693034;81;21543;-52
2022/02/07 09:55:38;;;;;;;18.70;12.37;;;;;;;8.42;54.97;92665.44;1703156;81;21498;-51
2022/02/07 09:58:06;;;;;;;11.38;7.62;;;;;;;8.34;55.09;92671.23;1719700;81;21056;-53
2022/02/07 10:00:35;;;;;;;12.65;9.68;;;;;;;8.24;55.41;92664.38;1686700;81;20993;-49
2022/02/07 10:03:14;;;;;;;;;;;;;;;;;;;;;
2022/02/07 10:05:48;;;;;;;9.43;8.10;;;;;;;8.26;55.59;92670.13;1711165;81;21539;-50
2022/02/07 10:08:15;;;;;;;10.75;8.98;;;;;;;8.32;55.73;92676.44;1678764;81;48518;-52
2022/02/07 10:10:46;;;;;;;11.93;8.28;;;;;;;8.29;55.91;92672.53;1709381;81;21030;-53
2022/02/07 10:15:53;;;;;;;35.85;21.48;;;;;;;8.20;56.13;92669.33;1716718;81;21040;-50
2022/02/07 10:18:43;;;;;;;24.67;14.85;;;;;;;8.23;56.35;92665.62;1677163;82;22274;-51
2022/02/07 10:37:58;;;;;;;;;;;;;;;;;;;;;
2022/02/07 10:43:32;;;;;;;19.32;10.08;;;;;;;8.23;56.13;92683.42;1706535;81;21337;-54
2022/02/07 10:46:09;;;;;;;15.95;10.20;;;;;;;8.20;56.24;92684.39;1693926;81;21069;-48
2022/02/07 10:48:42;;;;;;;14.55;11.95;;;;;;;8.22;56.09;92688.77;1701782;81;21038;-50
2022/02/07 10:51:25;;;;;;;9.55;7.85;;;;;;;8.28;55.91;92684.72;1703995;81;21051;-53
2022/02/07 10:54:08;;;;;;;23.05;15.20;;;;;;;8.34;55.76;92678.67;1701095;81;21100;-48
2022/02/07 10:56:43;;;;;;;13.28;8.83;;;;;;;8.35;55.79;92686.42;1672394;82;21072;-49
2022/02/07 10:59:09;;;;;;;11.70;9.18;;;;;;;8.31;55.83;92687.27;1673452;83;21132;-49
2022/02/07 11:04:15;;;;;;;10.88;9.35;;;;;;;8.35;55.62;92689.16;1688496;82;21058;-48
2022/02/07 11:06:45;;;;;;;13.03;11.65;;;;;;;8.34;55.56;92691.00;1707883;81;21041;-49
2022/02/07 11:09:32;;;;;;;9.35;8.45;;;;;;;8.37;55.49;92689.43;1697771;81;21130;-46
2022/02/07 11:12:21;;;;;;;10.90;9.35;;;;;;;8.39;55.42;92691.67;1700196;81;21045;-48
2022/02/07 11:19:55;;;;;;;10.08;6.60;;;;;;;8.39;55.64;92684.82;1709671;81;21084;-51
2022/02/07 11:25:17;;;;;;;8.80;7.45;;;;;;;8.41;55.63;92698.19;1686944;82;21036;-49
2022/02/07 11:27:43;;;;;;;15.90;9.93;;;;;;;8.33;56.04;92702.59;1700922;81;21153;-50
2022/02/07 11:30:13;;;;;;;16.85;11.22;;;;;;;8.28;56.33;92712.11;1708929;81;21147;-53
2022/02/07 11:32:48;;;;;;;16.15;12.90;;;;;;;8.17;56.82;92716.82;1675566;81;21524;-50
2022/02/07 11:35:24;;;;;;;15.80;11.90;;;;;;;8.09;57.50;92721.19;1697229;82;20969;-49
2022/02/07 11:38:04;;;;;;;11.33;10.05;;;;;;;8.00;58.02;92719.97;1699644;82;22162;-50
2022/02/07 11:40:40;;;;;;;11.20;10.10;;;;;;;7.92;58.90;92720.23;1665026;82;22197;-48
2022/02/07 11:43:19;;;;;;;12.53;10.45;;;;;;;7.89;59.54;92722.56;1695655;82;21084;-48
2022/02/07 11:45:59;;;;;;;795.60;578.10;;;;;;;7.85;60.13;92728.86;1697170;82;22288;-47
2022/02/07 11:48:43;;;;;;;235.15;176.35;;;;;;;7.72;60.41;92721.59;1712691;82;21060;-47
2022/02/07 11:51:21;;;;;;;49.23;37.75;;;;;;;7.61;61.05;92726.93;1708639;82;21312;-49
2022/02/07 11:53:57;;;;;;;26.35;21.15;;;;;;;7.54;61.87;92724.58;1735005;81;21659;-48
2022/02/07 11:56:35;;;;;;;15.70;13.40;;;;;;;7.49;62.16;92729.36;1729572;81;21269;-48
2022/02/07 11:59:12;;;;;;;10.28;8.25;;;;;;;7.42;62.87;92721.56;1714642;80;21493;-49
2022/02/07 12:02:16;;;;;;;14.83;12.37;;;;;;;7.34;63.54;92730.00;1724824;81;21072;-53
2022/02/07 12:04:48;;;;;;;10.23;8.23;;;;;;;7.29;64.15;92732.05;1725201;80;21009;-48
2022/02/07 12:07:28;;;;;;;124.38;68.57;;;;;;;7.14;65.20;92731.95;1736145;81;21174;-51
2022/02/07 12:10:15;;;;;;;40.50;25.08;;;;;;;7.03;65.98;92729.66;1712925;81;21005;-48
2022/02/07 12:12:50;;;;;;;29.20;18.50;;;;;;;7.03;66.29;92743.32;1667283;81;21500;-50
2022/02/07 12:15:34;;;;;;;29.75;21.48;;;;;;;6.99;66.69;92741.38;1691292;83;21047;-48
2022/02/07 12:18:13;;;;;;;23.87;16.50;;;;;;;6.94;66.95;92741.44;1692225;83;21096;-47
2022/02/07 12:20:43;;;;;;;43.38;27.25;;;;;;;6.96;67.19;92745.81;1684920;82;21148;-49
2022/02/07 12:23:13;;;;;;;35.33;23.07;;;;;;;6.88;67.47;92748.03;1686333;82;21010;-53
2022/02/07 12:25:59;;;;;;;20.65;14.53;;;;;;;6.76;68.24;92749.06;1691814;82;21077;-50
2022/02/07 12:28:39;;;;;;;11.63;9.15;;;;;;;6.68;68.69;92753.41;1697782;82;21043;-51
2022/02/07 12:33:23;;;;;;;26.70;14.98;;;;;;;6.53;69.84;92756.10;1708283;81;21141;-51
2022/02/07 12:35:52;;;;;;;32.20;17.77;;;;;;;6.49;70.12;92754.80;1696645;81;21037;-54
2022/02/07 12:38:22;;;;;;;29.12;17.12;;;;;;;6.48;70.21;92762.22;1703137;82;21111;-48
2022/02/07 12:40:49;;;;;;;30.12;18.80;;;;;;;6.54;70.14;92758.23;1699777;81;21249;-50
2022/02/07 12:43:16;;;;;;;42.85;20.95;;;;;;;6.50;70.16;92765.23;1694033;81;21112;-51
2022/02/07 12:45:43;;;;;;;49.25;25.62;;;;;;;6.52;70.17;92774.34;1661954;82;21205;-47
2022/02/07 12:48:14;;;;;;;20.02;13.40;;;;;;;6.52;70.21;92782.53;1704028;81;21058;-49
2022/02/07 12:50:42;;;;;;;23.07;13.18;;;;;;;6.48;70.37;92781.34;1691783;82;21073;-47
2022/02/07 12:53:09;;;;;;;31.85;17.77;;;;;;;6.43;70.47;92778.50;1707379;81;21039;-47
2022/02/07 12:55:36;;;;;;;22.45;9.88;;;;;;;6.38;70.90;92776.42;1705152;81;21529;-47
2022/02/07 12:58:03;;;;;;;32.75;19.55;;;;;;;6.39;71.15;92783.39;1703874;81;21114;-51
2022/02/07 13:00:30;;;;;;;23.25;14.83;;;;;;;6.40;71.38;92782.17;1715657;81;21178;-49
2022/02/07 13:02:57;;;;;;;19.62;12.13;;;;;;;6.42;71.89;92785.19;1706129;81;21144;-53
2022/02/07 13:05:23;;;;;;;22.00;13.68;;;;;;;6.46;71.50;92790.62;1679415;82;21742;-53
2022/02/07 13:07:52;;;;;;;18.95;13.75;;;;;;;6.44;71.57;92790.93;1692810;81;21089;-48
2022/02/07 13:10:21;;;;;;;22.07;15.48;;;;;;;6.44;71.39;92790.93;1732146;79;22048;-54
2022/02/07 13:15:22;;;;;;;25.17;16.37;;;;;;;6.36;71.58;92803.45;1678160;83;21088;-51
2022/02/07 13:17:50;;;;;;;22.32;15.83;;;;;;;6.33;71.72;92805.75;1683229;82;21523;-48
2022/02/07 13:20:17;;;;;;;20.32;12.98;;;;;;;6.28;71.61;92805.78;1707113;80;21060;-49
2022/02/07 13:22:44;;;;;;;14.25;10.35;;;;;;;6.18;71.51;92797.50;1699510;82;21155;-51
2022/02/07 13:25:13;;;;;;;13.43;10.38;;;;;;;6.03;71.58;92806.86;1692110;83;21580;-50
2022/02/07 13:27:41;;;;;;;15.15;11.57;;;;;;;5.91;71.73;92809.20;1716930;80;21049;-50
2022/02/07 13:30:10;;;;;;;11.45;9.35;;;;;;;5.77;71.80;92814.72;1705357;81;21049;-52
2022/02/07 13:32:40;;;;;;;32.60;23.42;;;;;;;5.59;72.14;92816.17;1702910;81;20975;-49
2022/02/07 13:35:10;;;;;;;36.15;25.85;;;;;;;5.47;72.60;92815.02;1675908;81;21301;-48
2022/02/07 13:37:39;;;;;;;30.05;22.90;;;;;;;5.48;73.03;92821.39;1673940;83;21243;-49
2022/02/07 13:40:12;;;;;;;30.80;21.27;;;;;;;5.58;72.98;92823.47;1706043;81;21096;-50
2022/02/07 13:42:50;;;;;;;36.85;25.35;;;;;;;5.66;73.15;92821.31;1660336;81;21109;-49
2022/02/07 13:45:23;;;;;;;52.03;32.13;;;;;;;5.76;72.93;92828.84;1664005;84;21196;-51
2022/02/07 13:47:55;;;;;;;19.42;14.65;;;;;;;5.80;72.97;92825.35;1659668;84;21132;-48
2022/02/07 13:50:23;;;;;;;16.12;11.53;;;;;;;5.81;72.67;92833.68;1534151;84;36612;-48
2022/02/07 13:52:53;;;;;;;21.57;14.05;;;;;;;5.78;72.85;92840.80;1501702;92;21808;-48
2022/02/07 13:55:28;;;;;;;17.17;13.10;;;;;;;5.77;72.83;92838.53;1526547;90;21130;-48
2022/02/07 13:58:05;;;;;;;18.17;12.37;;;;;;;5.77;72.64;92837.91;1479744;93;21132;-49
2022/02/07 14:00:50;;;;;;;15.15;12.35;;;;;;;5.71;72.71;92850.67;1529899;92;21596;-53
2022/02/07 14:03:33;;;;;;;14.75;12.20;;;;;;;5.63;72.91;92855.55;1537507;91;21143;-49
2022/02/07 14:06:07;;;;;;;11.08;9.45;;;;;;;5.63;73.29;92846.01;1526680;90;21052;-50
2022/02/07 14:08:41;;;;;;;21.33;14.38;;;;;;;5.66;73.57;92834.94;1538196;91;21036;-50